createdAt,value
2018-07-12T00:00:13.000Z,37
2018-07-12T00:01:13.000Z,36
2018-07-12T00:02:13.000Z,37
2018-07-12T00:03:13.000Z,36
2018-07-12T00:04:13.000Z,37
2018-07-12T00:05:13.000Z,37
2018-07-12T00:07:13.000Z,37
2018-07-12T00:09:13.000Z,37
2018-07-12T00:10:13.000Z,37
2018-07-12T00:12:13.000Z,37
2018-07-12T00:13:13.000Z,37
2018-07-12T00:15:13.000Z,37
2018-07-12T00:16:13.000Z,37
2018-07-12T00:17:13.000Z,37
2018-07-12T00:18:13.000Z,37
2018-07-12T00:19:13.000Z,37
2018-07-12T00:20:13.000Z,37
2018-07-12T00:21:13.000Z,37
2018-07-12T00:22:13.000Z,37
2018-07-12T00:24:13.000Z,37
2018-07-12T00:26:13.000Z,37
2018-07-12T00:27:13.000Z,37
2018-07-12T00:28:13.000Z,37
2018-07-12T00:30:13.000Z,37
2018-07-12T00:31:13.000Z,37
2018-07-12T00:32:13.000Z,37
2018-07-12T00:33:13.000Z,37
2018-07-12T00:34:13.000Z,37
2018-07-12T00:36:13.000Z,37
2018-07-12T00:37:13.000Z,37
2018-07-12T00:38:13.000Z,37
2018-07-12T00:39:13.000Z,37
2018-07-12T00:40:13.000Z,37
2018-07-12T00:42:13.000Z,37
2018-07-12T00:43:13.000Z,37
2018-07-12T00:44:13.000Z,37
2018-07-12T00:45:13.000Z,37
2018-07-12T00:46:13.000Z,37
2018-07-12T00:47:13.000Z,37
2018-07-12T00:48:13.000Z,37
2018-07-12T00:49:13.000Z,37
2018-07-12T00:50:13.000Z,37
2018-07-12T00:51:13.000Z,37
2018-07-12T00:52:13.000Z,37
2018-07-12T00:53:13.000Z,37
2018-07-12T00:54:13.000Z,37
2018-07-12T00:55:13.000Z,37
2018-07-12T00:56:12.000Z,37
2018-07-12T00:58:12.000Z,37
2018-07-12T00:59:12.000Z,37
2018-07-12T01:00:12.000Z,37
2018-07-12T01:02:12.000Z,37
2018-07-12T01:03:12.000Z,37
2018-07-12T01:04:12.000Z,37
2018-07-12T01:05:12.000Z,37
2018-07-12T01:06:12.000Z,37
2018-07-12T01:07:12.000Z,37
2018-07-12T01:08:12.000Z,37
2018-07-12T01:09:12.000Z,37
2018-07-12T01:10:12.000Z,37
2018-07-12T01:12:12.000Z,37
2018-07-12T01:13:12.000Z,37
2018-07-12T01:14:12.000Z,37
2018-07-12T01:15:12.000Z,37
2018-07-12T01:16:12.000Z,37
2018-07-12T01:18:12.000Z,37
2018-07-12T01:19:12.000Z,37
2018-07-12T01:20:12.000Z,37
2018-07-12T01:21:12.000Z,37
2018-07-12T01:22:12.000Z,37
2018-07-12T01:24:12.000Z,37
2018-07-12T01:25:12.000Z,37
2018-07-12T01:26:12.000Z,37
2018-07-12T01:27:12.000Z,37
2018-07-12T01:28:12.000Z,37
2018-07-12T01:29:12.000Z,37
2018-07-12T01:30:12.000Z,37
2018-07-12T01:31:12.000Z,37
2018-07-12T01:32:12.000Z,37
2018-07-12T01:33:12.000Z,37
2018-07-12T01:34:12.000Z,37
2018-07-12T01:35:12.000Z,37
2018-07-12T01:36:12.000Z,37
2018-07-12T01:37:12.000Z,37
2018-07-12T01:39:12.000Z,37
2018-07-12T01:40:12.000Z,37
2018-07-12T01:41:12.000Z,37
2018-07-12T01:42:12.000Z,37
2018-07-12T01:43:12.000Z,37
2018-07-12T01:44:12.000Z,37
2018-07-12T01:45:12.000Z,37
2018-07-12T01:46:12.000Z,37
2018-07-12T01:47:12.000Z,37
2018-07-12T01:48:12.000Z,37
2018-07-12T01:50:12.000Z,37
2018-07-12T01:51:12.000Z,37
2018-07-12T01:52:12.000Z,37
2018-07-12T01:53:12.000Z,37
2018-07-12T01:54:12.000Z,37
2018-07-12T01:55:12.000Z,37
2018-07-12T01:56:12.000Z,37
2018-07-12T01:57:12.000Z,37
2018-07-12T01:58:12.000Z,37
2018-07-12T01:59:12.000Z,37
2018-07-12T02:00:12.000Z,37
2018-07-12T02:01:12.000Z,37
2018-07-12T02:02:12.000Z,37
2018-07-12T02:03:12.000Z,37
2018-07-12T02:05:12.000Z,37
2018-07-12T02:06:12.000Z,37
2018-07-12T02:07:12.000Z,37
2018-07-12T02:08:12.000Z,37
2018-07-12T02:09:12.000Z,37
2018-07-12T02:10:12.000Z,37
2018-07-12T02:11:12.000Z,37
2018-07-12T02:12:12.000Z,37
2018-07-12T02:13:12.000Z,37
2018-07-12T02:14:12.000Z,37
2018-07-12T02:15:12.000Z,37
2018-07-12T02:16:12.000Z,37
2018-07-12T02:17:12.000Z,37
2018-07-12T02:18:12.000Z,37
2018-07-12T02:19:12.000Z,37
2018-07-12T02:20:12.000Z,37
2018-07-12T02:21:12.000Z,37
2018-07-12T02:23:12.000Z,37
2018-07-12T02:24:12.000Z,37
2018-07-12T02:26:12.000Z,37
2018-07-12T02:27:12.000Z,37
2018-07-12T02:28:12.000Z,37
2018-07-12T02:29:12.000Z,37
2018-07-12T02:30:12.000Z,37
2018-07-12T02:32:12.000Z,37
2018-07-12T02:33:12.000Z,37
2018-07-12T02:34:12.000Z,37
2018-07-12T02:35:12.000Z,37
2018-07-12T02:36:12.000Z,37
2018-07-12T02:37:12.000Z,37
2018-07-12T02:38:12.000Z,37
2018-07-12T02:39:12.000Z,37
2018-07-12T02:40:12.000Z,37
2018-07-12T02:41:12.000Z,37
2018-07-12T02:42:12.000Z,37
2018-07-12T02:43:12.000Z,37
2018-07-12T02:44:12.000Z,37
2018-07-12T02:45:12.000Z,37
2018-07-12T02:46:12.000Z,37
2018-07-12T02:47:12.000Z,37
2018-07-12T02:48:12.000Z,37
2018-07-12T02:49:12.000Z,37
2018-07-12T02:50:12.000Z,37
2018-07-12T02:51:12.000Z,37
2018-07-12T02:52:12.000Z,37
2018-07-12T02:53:12.000Z,37
2018-07-12T02:54:12.000Z,37
2018-07-12T02:55:12.000Z,37
2018-07-12T02:57:12.000Z,37
2018-07-12T02:58:12.000Z,37
2018-07-12T02:59:12.000Z,37
2018-07-12T03:00:12.000Z,37
2018-07-12T03:02:12.000Z,37
2018-07-12T03:03:12.000Z,37
2018-07-12T03:04:12.000Z,37
2018-07-12T03:05:12.000Z,37
2018-07-12T03:06:12.000Z,37
2018-07-12T03:07:12.000Z,37
2018-07-12T03:08:12.000Z,37
2018-07-12T03:09:12.000Z,37
2018-07-12T03:10:12.000Z,37
2018-07-12T03:11:12.000Z,37
2018-07-12T03:12:12.000Z,37
2018-07-12T03:14:12.000Z,37
2018-07-12T03:15:12.000Z,37
2018-07-12T03:16:12.000Z,37
2018-07-12T03:17:12.000Z,37
2018-07-12T03:18:12.000Z,37
2018-07-12T03:19:12.000Z,37
2018-07-12T03:20:12.000Z,37
2018-07-12T03:21:12.000Z,37
2018-07-12T03:22:12.000Z,37
2018-07-12T03:23:12.000Z,37
2018-07-12T03:25:12.000Z,37
2018-07-12T03:26:12.000Z,37
2018-07-12T03:28:12.000Z,37
2018-07-12T03:29:12.000Z,37
2018-07-12T03:30:12.000Z,37
2018-07-12T03:31:12.000Z,38
2018-07-12T03:33:12.000Z,38
2018-07-12T03:34:12.000Z,39
2018-07-12T03:36:12.000Z,39
2018-07-12T03:37:12.000Z,40
2018-07-12T03:38:12.000Z,40
2018-07-12T03:39:12.000Z,40
2018-07-12T03:40:12.000Z,41
2018-07-12T03:41:12.000Z,41
2018-07-12T03:42:12.000Z,41
2018-07-12T03:44:12.000Z,42
2018-07-12T03:45:12.000Z,42
2018-07-12T03:46:12.000Z,42
2018-07-12T03:47:12.000Z,42
2018-07-12T03:48:12.000Z,42
2018-07-12T03:49:12.000Z,42
2018-07-12T03:50:12.000Z,42
2018-07-12T03:51:12.000Z,42
2018-07-12T03:53:12.000Z,42
2018-07-12T03:54:12.000Z,42
2018-07-12T03:55:12.000Z,42
2018-07-12T03:56:12.000Z,42
2018-07-12T03:57:12.000Z,42
2018-07-12T03:58:12.000Z,42
2018-07-12T04:00:12.000Z,42
2018-07-12T04:02:12.000Z,42
2018-07-12T04:03:12.000Z,42
2018-07-12T04:04:12.000Z,42
2018-07-12T04:05:12.000Z,42
2018-07-12T04:06:12.000Z,42
2018-07-12T04:07:12.000Z,42
2018-07-12T04:08:12.000Z,42
2018-07-12T04:09:12.000Z,42
2018-07-12T04:10:12.000Z,42
2018-07-12T04:11:12.000Z,42
2018-07-12T04:12:12.000Z,42
2018-07-12T04:13:12.000Z,41
2018-07-12T04:14:12.000Z,42
2018-07-12T04:15:12.000Z,41
2018-07-12T04:16:12.000Z,41
2018-07-12T04:17:12.000Z,41
2018-07-12T04:18:12.000Z,41
2018-07-12T04:19:12.000Z,41
2018-07-12T04:20:12.000Z,41
2018-07-12T04:21:12.000Z,41
2018-07-12T04:22:12.000Z,41
2018-07-12T04:24:12.000Z,41
2018-07-12T04:25:12.000Z,41
2018-07-12T04:26:12.000Z,41
2018-07-12T04:27:12.000Z,41
2018-07-12T04:28:12.000Z,40
2018-07-12T04:29:12.000Z,40
2018-07-12T04:30:12.000Z,40
2018-07-12T04:31:12.000Z,41
2018-07-12T04:32:12.000Z,41
2018-07-12T04:33:12.000Z,41
2018-07-12T04:35:12.000Z,42
2018-07-12T04:36:12.000Z,42
2018-07-12T04:37:12.000Z,42
2018-07-12T04:38:12.000Z,42
2018-07-12T04:39:12.000Z,43
2018-07-12T04:40:12.000Z,43
2018-07-12T04:41:12.000Z,43
2018-07-12T04:42:12.000Z,43
2018-07-12T04:44:12.000Z,43
2018-07-12T04:45:12.000Z,43
2018-07-12T04:46:12.000Z,43
2018-07-12T04:47:12.000Z,43
2018-07-12T04:48:12.000Z,43
2018-07-12T04:49:12.000Z,44
2018-07-12T04:50:12.000Z,44
2018-07-12T04:51:12.000Z,44
2018-07-12T04:53:12.000Z,44
2018-07-12T04:54:12.000Z,44
2018-07-12T04:55:12.000Z,44
2018-07-12T04:56:12.000Z,44
2018-07-12T04:57:12.000Z,44
2018-07-12T04:59:12.000Z,44
2018-07-12T05:00:12.000Z,44
2018-07-12T05:01:12.000Z,44
2018-07-12T05:02:12.000Z,45
2018-07-12T05:03:12.000Z,45
2018-07-12T05:04:12.000Z,45
2018-07-12T05:05:12.000Z,45
2018-07-12T05:06:12.000Z,45
2018-07-12T05:07:12.000Z,45
2018-07-12T05:08:12.000Z,45
2018-07-12T05:09:12.000Z,45
2018-07-12T05:10:12.000Z,45
2018-07-12T05:11:12.000Z,45
2018-07-12T05:12:12.000Z,45
2018-07-12T05:13:12.000Z,45
2018-07-12T05:14:12.000Z,45
2018-07-12T05:15:12.000Z,45
2018-07-12T05:16:12.000Z,45
2018-07-12T05:17:12.000Z,45
2018-07-12T05:18:12.000Z,45
2018-07-12T05:19:12.000Z,45
2018-07-12T05:20:12.000Z,45
2018-07-12T05:21:12.000Z,45
2018-07-12T05:22:12.000Z,45
2018-07-12T05:23:12.000Z,45
2018-07-12T05:25:12.000Z,45
2018-07-12T05:26:12.000Z,45
2018-07-12T05:27:12.000Z,45
2018-07-12T05:29:12.000Z,45
2018-07-12T05:30:12.000Z,45
2018-07-12T05:32:12.000Z,45
2018-07-12T05:33:12.000Z,45
2018-07-12T05:34:12.000Z,44
2018-07-12T05:35:12.000Z,45
2018-07-12T05:36:12.000Z,44
2018-07-12T05:37:12.000Z,44
2018-07-12T05:38:12.000Z,44
2018-07-12T05:39:12.000Z,44
2018-07-12T05:41:12.000Z,44
2018-07-12T05:42:12.000Z,44
2018-07-12T05:43:12.000Z,44
2018-07-12T05:45:12.000Z,44
2018-07-12T05:46:12.000Z,44
2018-07-12T05:48:12.000Z,44
2018-07-12T05:49:12.000Z,44
2018-07-12T05:50:12.000Z,44
2018-07-12T05:51:12.000Z,43
2018-07-12T05:52:12.000Z,44
2018-07-12T05:53:12.000Z,44
2018-07-12T05:54:12.000Z,44
2018-07-12T05:55:12.000Z,44
2018-07-12T05:56:12.000Z,43
2018-07-12T05:57:12.000Z,43
2018-07-12T05:58:12.000Z,43
2018-07-12T05:59:12.000Z,43
2018-07-12T06:00:12.000Z,43
2018-07-12T06:01:12.000Z,43
2018-07-12T06:02:12.000Z,43
2018-07-12T06:03:12.000Z,43
2018-07-12T06:04:12.000Z,43
2018-07-12T06:05:12.000Z,43
2018-07-12T06:06:12.000Z,43
2018-07-12T06:07:12.000Z,43
2018-07-12T06:08:12.000Z,43
2018-07-12T06:09:12.000Z,42
2018-07-12T06:10:12.000Z,42
2018-07-12T06:11:12.000Z,42
2018-07-12T06:12:12.000Z,42
2018-07-12T06:14:12.000Z,42
2018-07-12T06:15:12.000Z,42
2018-07-12T06:16:12.000Z,42
2018-07-12T06:17:12.000Z,42
2018-07-12T06:18:12.000Z,42
2018-07-12T06:19:12.000Z,42
2018-07-12T06:20:12.000Z,42
2018-07-12T06:22:12.000Z,42
2018-07-12T06:23:12.000Z,42
2018-07-12T06:24:12.000Z,42
2018-07-12T06:25:12.000Z,42
2018-07-12T06:27:12.000Z,42
2018-07-12T06:28:12.000Z,42
2018-07-12T06:30:12.000Z,42
2018-07-12T06:31:12.000Z,42
2018-07-12T06:32:12.000Z,42
2018-07-12T06:33:12.000Z,42
2018-07-12T06:34:12.000Z,42
2018-07-12T06:35:12.000Z,42
2018-07-12T06:36:12.000Z,42
2018-07-12T06:37:12.000Z,42
2018-07-12T06:38:12.000Z,42
2018-07-12T06:39:12.000Z,42
2018-07-12T06:40:12.000Z,42
2018-07-12T06:41:12.000Z,42
2018-07-12T06:42:12.000Z,42
2018-07-12T06:43:12.000Z,41
2018-07-12T06:45:12.000Z,41
2018-07-12T06:46:12.000Z,41
2018-07-12T06:47:12.000Z,41
2018-07-12T06:48:12.000Z,41
2018-07-12T06:49:12.000Z,41
2018-07-12T06:50:12.000Z,41
2018-07-12T06:51:12.000Z,41
2018-07-12T06:52:12.000Z,41
2018-07-12T06:53:12.000Z,41
2018-07-12T06:54:12.000Z,41
2018-07-12T06:55:12.000Z,41
2018-07-12T06:56:12.000Z,41
2018-07-12T06:57:12.000Z,41
2018-07-12T06:59:12.000Z,41
2018-07-12T07:00:12.000Z,41
2018-07-12T07:02:12.000Z,41
2018-07-12T07:03:12.000Z,41
2018-07-12T07:04:12.000Z,41
2018-07-12T07:05:12.000Z,40
2018-07-12T07:06:12.000Z,40
2018-07-12T07:07:12.000Z,40
2018-07-12T07:43:49.000Z,44
2018-07-12T07:44:49.000Z,44
2018-07-12T07:45:49.000Z,44
2018-07-12T07:46:49.000Z,44
2018-07-12T07:47:49.000Z,44
2018-07-12T07:48:49.000Z,44
2018-07-12T07:49:49.000Z,44
2018-07-12T07:50:49.000Z,43
2018-07-12T07:51:49.000Z,43
2018-07-12T07:52:49.000Z,43
2018-07-12T07:53:49.000Z,43
2018-07-12T07:55:49.000Z,42
2018-07-12T07:56:49.000Z,42
2018-07-12T07:57:49.000Z,42
2018-07-12T07:59:49.000Z,42
2018-07-12T08:01:49.000Z,42
2018-07-12T08:02:49.000Z,42
2018-07-12T08:03:49.000Z,42
2018-07-12T08:04:49.000Z,42
2018-07-12T08:05:49.000Z,42
2018-07-12T08:06:49.000Z,42
2018-07-12T08:08:49.000Z,42
2018-07-12T08:09:49.000Z,42
2018-07-12T08:10:49.000Z,42
2018-07-12T08:11:49.000Z,41
2018-07-12T08:12:49.000Z,41
2018-07-12T08:13:49.000Z,41
2018-07-12T08:14:49.000Z,41
2018-07-12T08:15:49.000Z,41
2018-07-12T08:16:49.000Z,41
2018-07-12T08:18:49.000Z,40
2018-07-12T08:19:49.000Z,40
2018-07-12T08:21:49.000Z,40
2018-07-12T08:22:49.000Z,40
2018-07-12T08:24:49.000Z,40
2018-07-12T08:25:49.000Z,40
2018-07-12T08:27:49.000Z,39
2018-07-12T08:28:49.000Z,39
2018-07-12T08:29:49.000Z,39
2018-07-12T08:30:49.000Z,39
2018-07-12T08:31:49.000Z,39
2018-07-12T08:32:49.000Z,39
2018-07-12T08:33:49.000Z,39
2018-07-12T08:35:49.000Z,39
2018-07-12T08:36:49.000Z,39
2018-07-12T08:37:49.000Z,39
2018-07-12T08:39:49.000Z,38
2018-07-12T08:40:49.000Z,39
2018-07-12T08:41:49.000Z,39
2018-07-12T08:43:49.000Z,39
2018-07-12T08:44:49.000Z,39
2018-07-12T08:45:49.000Z,39
2018-07-12T08:46:49.000Z,39
2018-07-12T08:47:49.000Z,39
2018-07-12T08:48:49.000Z,39
2018-07-12T08:49:49.000Z,39
2018-07-12T08:50:49.000Z,38
2018-07-12T08:52:49.000Z,37
2018-07-12T08:53:49.000Z,37
2018-07-12T08:54:49.000Z,36
2018-07-12T08:55:49.000Z,36
2018-07-12T08:56:49.000Z,36
2018-07-12T08:57:49.000Z,35
2018-07-12T08:58:49.000Z,35
2018-07-12T09:00:49.000Z,34
2018-07-12T09:01:49.000Z,34
2018-07-12T09:03:49.000Z,34
2018-07-12T09:04:49.000Z,34
2018-07-12T09:05:49.000Z,34
2018-07-12T09:06:49.000Z,35
2018-07-12T09:07:49.000Z,35
2018-07-12T09:08:49.000Z,35
2018-07-12T09:09:49.000Z,35
2018-07-12T09:10:49.000Z,35
2018-07-12T09:11:49.000Z,35
2018-07-12T09:12:49.000Z,35
2018-07-12T09:13:49.000Z,35
2018-07-12T09:14:49.000Z,36
2018-07-12T09:15:49.000Z,36
2018-07-12T09:17:49.000Z,36
2018-07-12T09:19:49.000Z,37
2018-07-12T09:20:49.000Z,37
2018-07-12T09:21:49.000Z,37
2018-07-12T09:22:49.000Z,38
2018-07-12T09:23:49.000Z,38
2018-07-12T09:24:49.000Z,38
2018-07-12T09:25:49.000Z,38
2018-07-12T09:26:49.000Z,38
2018-07-12T09:27:49.000Z,38
2018-07-12T09:28:49.000Z,38
2018-07-12T09:29:49.000Z,39
2018-07-12T09:30:49.000Z,39
2018-07-12T09:31:49.000Z,39
2018-07-12T09:32:49.000Z,39
2018-07-12T09:34:49.000Z,39
2018-07-12T09:35:49.000Z,39
2018-07-12T09:37:49.000Z,39
2018-07-12T09:38:49.000Z,39
2018-07-12T09:40:49.000Z,39
2018-07-12T09:41:49.000Z,39
2018-07-12T09:42:49.000Z,39
2018-07-12T09:43:49.000Z,39
2018-07-12T09:44:49.000Z,39
2018-07-12T09:45:49.000Z,39
2018-07-12T09:46:49.000Z,39
2018-07-12T09:47:49.000Z,39
2018-07-12T09:48:49.000Z,39
2018-07-12T09:49:49.000Z,39
2018-07-12T09:50:49.000Z,39
2018-07-12T09:51:49.000Z,39
2018-07-12T09:52:49.000Z,39
2018-07-12T09:53:49.000Z,39
2018-07-12T09:54:49.000Z,39
2018-07-12T09:55:49.000Z,39
2018-07-12T09:57:49.000Z,39
2018-07-12T09:58:49.000Z,40
2018-07-12T10:00:49.000Z,39
2018-07-12T10:01:49.000Z,40
2018-07-12T10:02:49.000Z,40
2018-07-12T10:03:49.000Z,40
2018-07-12T10:04:49.000Z,40
2018-07-12T10:05:49.000Z,40
2018-07-12T10:06:49.000Z,40
2018-07-12T10:07:49.000Z,40
2018-07-12T10:08:49.000Z,40
2018-07-12T10:10:49.000Z,39
2018-07-12T10:11:49.000Z,39
2018-07-12T10:12:49.000Z,39
2018-07-12T10:13:49.000Z,40
2018-07-12T10:14:49.000Z,40
2018-07-12T10:15:49.000Z,40
2018-07-12T10:16:49.000Z,40
2018-07-12T10:17:49.000Z,40
2018-07-12T10:18:49.000Z,40
2018-07-12T10:19:49.000Z,40
2018-07-12T10:20:49.000Z,40
2018-07-12T10:21:49.000Z,40
2018-07-12T10:23:49.000Z,39
2018-07-12T10:24:49.000Z,40
2018-07-12T10:25:49.000Z,40
2018-07-12T10:27:49.000Z,40
2018-07-12T10:28:49.000Z,40
2018-07-12T10:29:49.000Z,40
2018-07-12T10:30:49.000Z,40
2018-07-12T10:32:49.000Z,40
2018-07-12T10:33:49.000Z,40
2018-07-12T10:34:49.000Z,39
2018-07-12T10:35:49.000Z,40
2018-07-12T10:36:49.000Z,40
2018-07-12T10:37:49.000Z,40
2018-07-12T10:39:49.000Z,39
2018-07-12T10:40:49.000Z,40
2018-07-12T10:42:49.000Z,39
2018-07-12T10:43:49.000Z,40
2018-07-12T10:44:49.000Z,40
2018-07-12T10:45:49.000Z,40
2018-07-12T10:46:49.000Z,40
2018-07-12T10:47:49.000Z,40
2018-07-12T10:48:49.000Z,40
2018-07-12T10:49:49.000Z,40
2018-07-12T10:51:49.000Z,40
2018-07-12T10:52:49.000Z,40
2018-07-12T10:53:49.000Z,40
2018-07-12T10:54:49.000Z,40
2018-07-12T10:55:49.000Z,40
2018-07-12T10:56:49.000Z,40
2018-07-12T10:57:49.000Z,40
2018-07-12T10:59:49.000Z,40
2018-07-12T11:01:49.000Z,40
2018-07-12T11:02:49.000Z,40
2018-07-12T11:03:49.000Z,40
2018-07-12T11:04:49.000Z,40
2018-07-12T11:05:49.000Z,40
2018-07-12T11:06:49.000Z,40
2018-07-12T11:07:49.000Z,40
2018-07-12T11:08:49.000Z,40
2018-07-12T11:09:49.000Z,40
2018-07-12T11:11:49.000Z,39
2018-07-12T11:12:49.000Z,40
2018-07-12T11:13:49.000Z,40
2018-07-12T11:15:49.000Z,39
2018-07-12T11:16:49.000Z,39
2018-07-12T11:18:49.000Z,39
2018-07-12T11:19:49.000Z,39
2018-07-12T11:20:49.000Z,39
2018-07-12T11:21:49.000Z,39
2018-07-12T11:22:49.000Z,39
2018-07-12T11:23:49.000Z,39
2018-07-12T11:24:49.000Z,39
2018-07-12T11:26:49.000Z,39
2018-07-12T11:27:49.000Z,39
2018-07-12T11:28:49.000Z,39
2018-07-12T11:29:49.000Z,39
2018-07-12T11:30:50.000Z,39
2018-07-12T11:31:50.000Z,39
2018-07-12T11:32:50.000Z,39
2018-07-12T11:33:50.000Z,39
2018-07-12T11:34:50.000Z,39
2018-07-12T11:35:50.000Z,39
2018-07-12T11:36:50.000Z,39
2018-07-12T11:37:50.000Z,39
2018-07-12T11:38:50.000Z,39
2018-07-12T11:39:50.000Z,39
2018-07-12T11:40:50.000Z,39
2018-07-12T11:42:50.000Z,39
2018-07-12T11:43:50.000Z,39
2018-07-12T11:44:50.000Z,39
2018-07-12T11:45:50.000Z,39
2018-07-12T11:46:50.000Z,39
2018-07-12T11:47:50.000Z,39
2018-07-12T11:48:50.000Z,39
2018-07-12T11:49:50.000Z,39
2018-07-12T11:51:50.000Z,39
2018-07-12T11:52:50.000Z,39
2018-07-12T11:53:50.000Z,39
2018-07-12T11:54:50.000Z,39
2018-07-12T11:56:50.000Z,39
2018-07-12T11:57:50.000Z,39
2018-07-12T11:58:50.000Z,39
2018-07-12T11:59:50.000Z,39
2018-07-12T12:00:50.000Z,39
2018-07-12T12:01:50.000Z,39
2018-07-12T12:02:50.000Z,39
2018-07-12T12:03:50.000Z,39
2018-07-12T12:04:50.000Z,39
2018-07-12T12:05:50.000Z,39
2018-07-12T12:06:50.000Z,39
2018-07-12T12:07:50.000Z,39
2018-07-12T12:08:50.000Z,39
2018-07-12T12:09:50.000Z,39
2018-07-12T12:10:50.000Z,39
2018-07-12T12:11:50.000Z,39
2018-07-12T12:12:50.000Z,39
2018-07-12T12:13:50.000Z,39
2018-07-12T12:14:50.000Z,39
2018-07-12T12:15:50.000Z,39
2018-07-12T12:16:50.000Z,39
2018-07-12T12:17:50.000Z,39
2018-07-12T12:18:50.000Z,39
2018-07-12T12:19:50.000Z,39
2018-07-12T12:20:50.000Z,38
2018-07-12T12:22:50.000Z,38
2018-07-12T12:23:50.000Z,38
2018-07-12T12:25:50.000Z,38
2018-07-12T12:26:50.000Z,38
2018-07-12T12:28:50.000Z,38
2018-07-12T12:29:50.000Z,39
2018-07-12T12:30:50.000Z,38
2018-07-12T12:31:50.000Z,39
2018-07-12T12:32:50.000Z,38
2018-07-12T12:33:50.000Z,39
2018-07-12T12:34:50.000Z,39
2018-07-12T12:35:50.000Z,38
2018-07-12T12:36:50.000Z,38
2018-07-12T12:37:50.000Z,38
2018-07-12T12:38:50.000Z,38
2018-07-12T12:39:50.000Z,38
2018-07-12T12:40:50.000Z,38
2018-07-12T12:41:50.000Z,38
2018-07-12T12:43:50.000Z,38
2018-07-12T12:44:50.000Z,38
2018-07-12T12:45:50.000Z,38
2018-07-12T12:46:50.000Z,38
2018-07-12T12:47:50.000Z,38
2018-07-12T12:48:50.000Z,38
2018-07-12T12:50:50.000Z,38
2018-07-12T12:51:50.000Z,38
2018-07-12T12:52:50.000Z,38
2018-07-12T12:54:50.000Z,38
2018-07-12T12:56:50.000Z,38
2018-07-12T12:57:50.000Z,38
2018-07-12T12:59:50.000Z,38
2018-07-12T13:00:50.000Z,38
2018-07-12T13:01:50.000Z,38
2018-07-12T13:02:50.000Z,38
2018-07-12T13:03:50.000Z,38
2018-07-12T13:04:50.000Z,38
2018-07-12T13:05:50.000Z,38
2018-07-12T13:06:50.000Z,38
2018-07-12T13:07:50.000Z,38
2018-07-12T13:09:50.000Z,38
2018-07-12T13:10:50.000Z,38
2018-07-12T13:12:50.000Z,38
2018-07-12T13:13:50.000Z,38
2018-07-12T13:14:50.000Z,38
2018-07-12T13:15:50.000Z,38
2018-07-12T13:16:50.000Z,38
2018-07-12T13:17:50.000Z,38
2018-07-12T13:18:50.000Z,38
2018-07-12T13:19:50.000Z,38
2018-07-12T13:20:50.000Z,38
2018-07-12T13:22:50.000Z,37
2018-07-12T13:23:50.000Z,37
2018-07-12T13:24:50.000Z,37
2018-07-12T13:26:50.000Z,37
2018-07-12T13:27:50.000Z,37
2018-07-12T13:28:50.000Z,37
2018-07-12T13:29:50.000Z,37
2018-07-12T13:30:50.000Z,37
2018-07-12T13:31:50.000Z,37
2018-07-12T13:32:50.000Z,37
2018-07-12T13:33:50.000Z,37
2018-07-12T13:34:50.000Z,37
2018-07-12T13:35:50.000Z,37
2018-07-12T13:37:50.000Z,37
2018-07-12T13:38:50.000Z,37
2018-07-12T13:39:50.000Z,37
2018-07-12T13:40:50.000Z,37
2018-07-12T13:41:50.000Z,37
2018-07-12T13:42:50.000Z,37
2018-07-12T13:44:50.000Z,37
2018-07-12T13:45:50.000Z,37
2018-07-12T13:46:50.000Z,37
2018-07-12T13:48:50.000Z,37
2018-07-12T13:49:50.000Z,37
2018-07-12T13:50:50.000Z,37
2018-07-12T13:52:50.000Z,37
2018-07-12T13:53:50.000Z,37
2018-07-12T13:55:50.000Z,37
2018-07-12T13:56:50.000Z,37
2018-07-12T13:57:50.000Z,37
2018-07-12T13:58:50.000Z,37
2018-07-12T13:59:50.000Z,37
2018-07-12T14:01:50.000Z,37
2018-07-12T14:02:50.000Z,37
2018-07-12T14:03:50.000Z,37
2018-07-12T14:04:50.000Z,37
2018-07-12T14:05:50.000Z,37
2018-07-12T14:07:50.000Z,37
2018-07-12T14:08:50.000Z,37
2018-07-12T14:09:50.000Z,37
2018-07-12T14:10:50.000Z,37
2018-07-12T14:11:50.000Z,37
2018-07-12T14:12:50.000Z,37
2018-07-12T14:13:50.000Z,37
2018-07-12T14:14:50.000Z,37
2018-07-12T14:15:50.000Z,37
2018-07-12T14:16:50.000Z,37
2018-07-12T14:17:50.000Z,37
2018-07-12T14:18:50.000Z,37
2018-07-12T14:19:50.000Z,37
2018-07-12T14:20:50.000Z,37
2018-07-12T14:22:50.000Z,37
2018-07-12T14:23:50.000Z,37
2018-07-12T14:24:50.000Z,37
2018-07-12T14:25:50.000Z,37
2018-07-12T14:27:50.000Z,37
2018-07-12T14:28:50.000Z,37
2018-07-12T14:29:50.000Z,37
2018-07-12T14:30:50.000Z,37
2018-07-12T14:32:50.000Z,37
2018-07-12T14:33:50.000Z,37
2018-07-12T14:34:50.000Z,37
2018-07-12T14:36:50.000Z,37
2018-07-12T14:37:50.000Z,37
2018-07-12T14:38:50.000Z,37
2018-07-12T14:39:50.000Z,37
2018-07-12T14:40:50.000Z,37
2018-07-12T14:41:50.000Z,37
2018-07-12T14:42:50.000Z,37
2018-07-12T14:43:50.000Z,37
2018-07-12T14:44:50.000Z,37
2018-07-12T14:45:50.000Z,37
2018-07-12T14:46:50.000Z,37
2018-07-12T14:48:50.000Z,37
2018-07-12T14:49:50.000Z,37
2018-07-12T14:51:50.000Z,37
2018-07-12T14:52:50.000Z,37
2018-07-12T14:53:50.000Z,37
2018-07-12T14:54:50.000Z,37
2018-07-12T14:55:50.000Z,37
2018-07-12T14:56:50.000Z,37
2018-07-12T14:57:50.000Z,37
2018-07-12T14:58:50.000Z,37
2018-07-12T14:59:50.000Z,37
2018-07-12T15:00:50.000Z,37
2018-07-12T15:01:50.000Z,37
2018-07-12T15:02:50.000Z,36
2018-07-12T15:03:50.000Z,36
2018-07-12T15:04:50.000Z,36
2018-07-12T15:06:50.000Z,36
2018-07-12T15:07:50.000Z,36
2018-07-12T15:08:50.000Z,36
2018-07-12T15:09:50.000Z,36
2018-07-12T15:10:50.000Z,36
2018-07-12T15:11:50.000Z,36
2018-07-12T15:12:50.000Z,36
2018-07-12T15:13:50.000Z,36
2018-07-12T15:14:50.000Z,36
2018-07-12T15:15:50.000Z,36
2018-07-12T15:16:50.000Z,36
2018-07-12T15:17:50.000Z,36
2018-07-12T15:18:50.000Z,36
2018-07-12T15:19:50.000Z,36
2018-07-12T15:20:50.000Z,35
2018-07-12T15:21:50.000Z,35
2018-07-12T15:22:50.000Z,35
2018-07-12T15:23:50.000Z,35
2018-07-12T15:25:50.000Z,35
2018-07-12T15:26:50.000Z,35
2018-07-12T15:28:50.000Z,35
2018-07-12T15:29:50.000Z,35
2018-07-12T15:31:50.000Z,35
2018-07-12T15:32:50.000Z,35
2018-07-12T15:33:50.000Z,35
2018-07-12T15:34:50.000Z,35
2018-07-12T15:35:50.000Z,35
2018-07-12T15:36:50.000Z,35
2018-07-12T15:37:50.000Z,35
2018-07-12T15:38:50.000Z,35
2018-07-12T15:39:50.000Z,35
2018-07-12T15:40:50.000Z,35
2018-07-12T15:41:50.000Z,35
2018-07-12T15:42:50.000Z,35
2018-07-12T15:43:50.000Z,35
2018-07-12T15:44:50.000Z,34
2018-07-12T15:46:49.000Z,34
2018-07-12T15:47:49.000Z,35
2018-07-12T15:48:49.000Z,35
2018-07-12T15:49:49.000Z,35
2018-07-12T15:50:49.000Z,35
2018-07-12T15:51:49.000Z,35
2018-07-12T15:52:49.000Z,35
2018-07-12T15:53:49.000Z,36
2018-07-12T15:54:49.000Z,36
2018-07-12T15:55:49.000Z,36
2018-07-12T15:56:49.000Z,36
2018-07-12T15:58:49.000Z,36
2018-07-12T16:00:49.000Z,36
2018-07-12T16:01:49.000Z,37
2018-07-12T16:02:49.000Z,37
2018-07-12T16:03:49.000Z,37
2018-07-12T16:04:49.000Z,37
2018-07-12T16:05:49.000Z,37
2018-07-12T16:06:49.000Z,37
2018-07-12T16:07:49.000Z,37
2018-07-12T16:08:49.000Z,37
2018-07-12T16:09:49.000Z,37
2018-07-12T16:10:49.000Z,37
2018-07-12T16:11:49.000Z,38
2018-07-12T16:13:49.000Z,37
2018-07-12T16:14:49.000Z,38
2018-07-12T16:15:49.000Z,38
2018-07-12T16:16:49.000Z,38
2018-07-12T16:17:49.000Z,38
2018-07-12T16:18:49.000Z,38
2018-07-12T16:19:49.000Z,38
2018-07-12T16:20:49.000Z,38
2018-07-12T16:21:49.000Z,38
2018-07-12T16:22:49.000Z,38
2018-07-12T16:23:49.000Z,38
2018-07-12T16:24:49.000Z,38
2018-07-12T16:25:49.000Z,38
2018-07-12T16:26:49.000Z,38
2018-07-12T16:27:49.000Z,38
2018-07-12T16:28:49.000Z,38
2018-07-12T16:29:49.000Z,38
2018-07-12T16:30:49.000Z,38
2018-07-12T16:32:49.000Z,38
2018-07-12T16:34:49.000Z,38
2018-07-12T16:35:49.000Z,38
2018-07-12T16:36:49.000Z,38
2018-07-12T16:37:49.000Z,38
2018-07-12T16:39:49.000Z,38
2018-07-12T16:40:49.000Z,38
2018-07-12T16:41:49.000Z,38
2018-07-12T16:42:49.000Z,38
2018-07-12T16:43:49.000Z,38
2018-07-12T16:44:49.000Z,38
2018-07-12T16:45:49.000Z,38
2018-07-12T16:47:49.000Z,38
2018-07-12T16:49:49.000Z,38
2018-07-12T16:50:49.000Z,38
2018-07-12T16:51:49.000Z,38
2018-07-12T16:52:49.000Z,38
2018-07-12T16:54:49.000Z,38
2018-07-12T16:55:49.000Z,38